createdAt,value
2022-12-06T00:00:13.000Z,275.52
2022-12-06T00:01:39.000Z,275.52
2022-12-06T00:03:45.000Z,275.46
2022-12-06T00:06:37.000Z,275.46
2022-12-06T00:08:03.000Z,275.46
2022-12-06T00:10:09.000Z,275.52
2022-12-06T00:11:36.000Z,275.52
2022-12-06T00:13:42.000Z,275.46
2022-12-06T00:15:08.000Z,275.46
2022-12-06T00:17:15.000Z,275.52
2022-12-06T00:18:41.000Z,275.52
2022-12-06T00:20:47.000Z,275.52
2022-12-06T00:22:14.000Z,275.52
2022-12-06T00:24:20.000Z,275.52
2022-12-06T00:25:46.000Z,275.52
2022-12-06T00:27:52.000Z,275.46
2022-12-06T00:29:19.000Z,275.52
2022-12-06T00:31:25.000Z,275.52
2022-12-06T00:32:52.000Z,275.52
2022-12-06T00:34:58.000Z,275.46
2022-12-06T00:36:24.000Z,275.46
2022-12-06T00:38:30.000Z,275.46
2022-12-06T00:39:57.000Z,275.52
2022-12-06T00:42:04.000Z,275.52
2022-12-06T00:44:54.000Z,275.46
2022-12-06T00:46:21.000Z,275.52
2022-12-06T00:48:27.000Z,275.52
2022-12-06T00:50:58.000Z,275.52
2022-12-06T00:53:05.000Z,275.52
2022-12-06T00:54:31.000Z,275.52
2022-12-06T00:56:37.000Z,275.46
2022-12-06T00:58:04.000Z,275.46
2022-12-06T01:00:10.000Z,275.46
2022-12-06T01:01:36.000Z,275.46
2022-12-06T01:03:43.000Z,275.46
2022-12-06T01:05:09.000Z,275.46
2022-12-06T01:07:15.000Z,275.4
2022-12-06T01:08:42.000Z,275.4
2022-12-06T01:10:48.000Z,275.4
2022-12-06T01:12:14.000Z,275.34
2022-12-06T01:14:21.000Z,275.34
2022-12-06T01:15:47.000Z,275.34
2022-12-06T01:17:53.000Z,275.34
2022-12-06T01:19:20.000Z,275.34
2022-12-06T01:21:26.000Z,275.34
2022-12-06T01:24:17.000Z,275.34
2022-12-06T01:25:44.000Z,275.27
2022-12-06T01:27:50.000Z,275.27
2022-12-06T01:29:17.000Z,275.27
2022-12-06T01:31:23.000Z,275.27
2022-12-06T01:32:49.000Z,275.27
2022-12-06T01:34:55.000Z,275.27
2022-12-06T01:36:22.000Z,275.27
2022-12-06T01:38:28.000Z,275.21
2022-12-06T01:39:55.000Z,275.27
2022-12-06T01:42:01.000Z,275.21
2022-12-06T01:43:28.000Z,275.21
2022-12-06T01:45:34.000Z,275.21
2022-12-06T01:47:00.000Z,275.21
2022-12-06T01:49:06.000Z,275.21
2022-12-06T01:50:33.000Z,275.21
2022-12-06T01:52:39.000Z,275.15
2022-12-06T01:54:06.000Z,275.15
2022-12-06T01:56:12.000Z,275.15
2022-12-06T01:57:38.000Z,275.15
2022-12-06T01:59:44.000Z,275.15
2022-12-06T02:02:35.000Z,275.15
2022-12-06T02:04:02.000Z,275.09
2022-12-06T02:06:10.000Z,275.15
2022-12-06T02:07:37.000Z,275.09
2022-12-06T02:09:43.000Z,275.09
2022-12-06T02:11:10.000Z,275.09
2022-12-06T02:13:16.000Z,275.09
2022-12-06T02:14:42.000Z,275.02
2022-12-06T02:16:48.000Z,275.09
2022-12-06T02:18:15.000Z,275.02
2022-12-06T02:20:21.000Z,275.02
2022-12-06T02:21:48.000Z,275.02
2022-12-06T02:23:54.000Z,275.02
2022-12-06T02:25:20.000Z,275.02
2022-12-06T02:27:26.000Z,275.02
2022-12-06T02:28:53.000Z,275.02
2022-12-06T02:30:59.000Z,275.02
2022-12-06T02:32:26.000Z,274.96
2022-12-06T02:34:32.000Z,274.96
2022-12-06T02:35:58.000Z,275.02
2022-12-06T02:38:04.000Z,274.96
2022-12-06T02:41:01.000Z,274.96
2022-12-06T02:42:28.000Z,274.96
2022-12-06T02:44:34.000Z,274.9
2022-12-06T02:46:01.000Z,274.96
2022-12-06T02:48:07.000Z,274.96
2022-12-06T02:49:33.000Z,274.96
2022-12-06T02:51:40.000Z,274.9
2022-12-06T02:53:06.000Z,274.9
2022-12-06T02:55:12.000Z,274.96
2022-12-06T02:56:39.000Z,274.96
2022-12-06T02:58:45.000Z,274.9
2022-12-06T03:00:11.000Z,274.9
2022-12-06T03:02:17.000Z,274.9
2022-12-06T03:03:44.000Z,274.9
2022-12-06T03:05:50.000Z,274.9
2022-12-06T03:07:17.000Z,274.9
2022-12-06T03:09:23.000Z,274.9
2022-12-06T03:10:49.000Z,274.9
2022-12-06T03:12:55.000Z,274.9
2022-12-06T03:14:22.000Z,274.84
2022-12-06T03:16:28.000Z,274.84
2022-12-06T03:19:19.000Z,274.84
2022-12-06T03:20:46.000Z,274.9
2022-12-06T03:22:52.000Z,274.84
2022-12-06T03:24:18.000Z,274.84
2022-12-06T03:26:24.000Z,274.84
2022-12-06T03:27:51.000Z,274.9
2022-12-06T03:29:57.000Z,274.9
2022-12-06T03:31:24.000Z,274.9
2022-12-06T03:33:30.000Z,274.84
2022-12-06T03:34:57.000Z,274.9
2022-12-06T03:37:03.000Z,274.84
2022-12-06T03:38:29.000Z,274.9
2022-12-06T03:40:36.000Z,274.84
2022-12-06T03:42:02.000Z,274.84
2022-12-06T03:44:08.000Z,274.84
2022-12-06T03:45:35.000Z,274.9
2022-12-06T03:47:41.000Z,274.9
2022-12-06T03:49:07.000Z,274.84
2022-12-06T03:51:14.000Z,274.84
2022-12-06T03:52:40.000Z,274.84
2022-12-06T03:54:46.000Z,274.84
2022-12-06T03:57:38.000Z,274.77
2022-12-06T03:59:04.000Z,274.84
2022-12-06T04:01:10.000Z,274.77
2022-12-06T04:02:37.000Z,274.84
2022-12-06T04:04:43.000Z,274.77
2022-12-06T04:06:09.000Z,274.84
2022-12-06T04:08:15.000Z,274.77
2022-12-06T04:09:42.000Z,274.84
2022-12-06T04:11:48.000Z,274.77
2022-12-06T04:13:15.000Z,274.77
2022-12-06T04:15:24.000Z,274.77
2022-12-06T04:16:50.000Z,274.77
2022-12-06T04:18:56.000Z,274.77
2022-12-06T04:20:23.000Z,274.77
2022-12-06T04:22:29.000Z,274.77
2022-12-06T04:23:55.000Z,274.77
2022-12-06T04:26:02.000Z,274.77
2022-12-06T04:27:28.000Z,274.77
2022-12-06T04:29:34.000Z,274.71
2022-12-06T04:31:01.000Z,274.71
2022-12-06T04:33:07.000Z,274.71
2022-12-06T04:35:58.000Z,274.71
2022-12-06T04:37:24.000Z,274.71
2022-12-06T04:39:31.000Z,274.71
2022-12-06T04:40:57.000Z,274.71
2022-12-06T04:43:03.000Z,274.77
2022-12-06T04:44:30.000Z,274.71
2022-12-06T04:46:36.000Z,274.71
2022-12-06T04:48:02.000Z,274.71
2022-12-06T04:50:09.000Z,274.71
2022-12-06T04:51:35.000Z,274.71
2022-12-06T04:53:41.000Z,274.71
2022-12-06T04:55:08.000Z,274.71
2022-12-06T04:57:14.000Z,274.71
2022-12-06T04:58:40.000Z,274.71
2022-12-06T05:00:46.000Z,274.71
2022-12-06T05:02:13.000Z,274.71
2022-12-06T05:04:19.000Z,274.71
2022-12-06T05:05:46.000Z,274.71
2022-12-06T05:07:52.000Z,274.71
2022-12-06T05:09:19.000Z,274.71
2022-12-06T05:11:25.000Z,274.65
2022-12-06T05:14:16.000Z,274.65
2022-12-06T05:15:42.000Z,274.65
2022-12-06T05:17:49.000Z,274.65
2022-12-06T05:19:15.000Z,274.65
2022-12-06T05:21:21.000Z,274.65
2022-12-06T05:22:48.000Z,274.65
2022-12-06T05:24:54.000Z,274.65
2022-12-06T05:26:20.000Z,274.65
2022-12-06T05:28:26.000Z,274.65
2022-12-06T05:29:53.000Z,274.65
2022-12-06T05:31:59.000Z,274.65
2022-12-06T05:33:26.000Z,274.65
2022-12-06T05:35:32.000Z,274.65
2022-12-06T05:36:58.000Z,274.65
2022-12-06T05:39:05.000Z,274.65
2022-12-06T05:40:31.000Z,274.65
2022-12-06T05:42:37.000Z,274.59
2022-12-06T05:44:04.000Z,274.65
2022-12-06T05:46:10.000Z,274.65
2022-12-06T05:47:37.000Z,274.59
2022-12-06T05:49:43.000Z,274.65
2022-12-06T05:52:34.000Z,274.65
2022-12-06T05:54:00.000Z,274.59
2022-12-06T05:56:06.000Z,274.59
2022-12-06T05:57:33.000Z,274.65
2022-12-06T05:59:39.000Z,274.59
2022-12-06T06:01:06.000Z,274.65
2022-12-06T06:03:12.000Z,274.59
2022-12-06T06:04:38.000Z,274.65
2022-12-06T06:06:45.000Z,274.59
2022-12-06T06:08:11.000Z,274.59
2022-12-06T06:10:17.000Z,274.59
2022-12-06T06:11:44.000Z,274.65
2022-12-06T06:13:50.000Z,274.59
2022-12-06T06:15:17.000Z,274.59
2022-12-06T06:17:23.000Z,274.59
2022-12-06T06:18:49.000Z,274.59
2022-12-06T06:20:55.000Z,274.59
2022-12-06T06:22:22.000Z,274.59
2022-12-06T06:24:28.000Z,274.59
2022-12-06T06:25:54.000Z,274.59
2022-12-06T06:28:00.000Z,274.59
2022-12-06T06:30:52.000Z,274.59
2022-12-06T06:32:18.000Z,274.59
2022-12-06T06:34:24.000Z,274.59
2022-12-06T06:35:51.000Z,274.59
2022-12-06T06:37:57.000Z,274.59
2022-12-06T06:39:24.000Z,274.59
2022-12-06T06:41:30.000Z,274.59
2022-12-06T06:42:56.000Z,274.59
2022-12-06T06:45:02.000Z,274.59
2022-12-06T06:46:29.000Z,274.59
2022-12-06T06:48:35.000Z,274.59
2022-12-06T06:50:02.000Z,274.59
2022-12-06T06:52:08.000Z,274.59
2022-12-06T06:53:34.000Z,274.59
2022-12-06T06:55:40.000Z,274.59
2022-12-06T06:57:07.000Z,274.59
2022-12-06T06:59:21.000Z,274.59
2022-12-06T07:00:47.000Z,274.59
2022-12-06T07:02:54.000Z,274.59
2022-12-06T07:04:20.000Z,274.59
2022-12-06T07:06:26.000Z,274.59
2022-12-06T07:09:17.000Z,274.59
2022-12-06T07:10:44.000Z,274.59
2022-12-06T07:12:50.000Z,274.59
2022-12-06T07:14:17.000Z,274.59
2022-12-06T07:16:23.000Z,274.52
2022-12-06T07:17:49.000Z,274.52
2022-12-06T07:19:55.000Z,274.52
2022-12-06T07:21:22.000Z,274.52
2022-12-06T07:23:28.000Z,274.59
2022-12-06T07:24:55.000Z,274.59
2022-12-06T07:27:01.000Z,274.59
2022-12-06T07:28:27.000Z,274.59
2022-12-06T07:30:33.000Z,274.59
2022-12-06T07:32:00.000Z,274.52
2022-12-06T07:34:06.000Z,274.52
2022-12-06T07:35:33.000Z,274.52
2022-12-06T07:38:15.000Z,274.52
2022-12-06T07:39:42.000Z,274.52
2022-12-06T07:41:48.000Z,274.59
2022-12-06T07:43:14.000Z,274.52
2022-12-06T07:45:20.000Z,274.52
2022-12-06T07:48:12.000Z,274.52
2022-12-06T07:49:38.000Z,274.59
2022-12-06T07:51:44.000Z,274.52
2022-12-06T07:53:11.000Z,274.59
2022-12-06T07:55:17.000Z,274.52
2022-12-06T07:56:43.000Z,274.59
2022-12-06T07:58:49.000Z,274.59
2022-12-06T08:00:16.000Z,274.59
2022-12-06T08:02:22.000Z,274.59
2022-12-06T08:03:49.000Z,274.59
2022-12-06T08:05:55.000Z,274.59
2022-12-06T08:07:21.000Z,274.59
2022-12-06T08:09:28.000Z,274.59
2022-12-06T08:10:54.000Z,274.59
2022-12-06T08:13:00.000Z,274.52
2022-12-06T08:14:27.000Z,274.59
2022-12-06T08:16:33.000Z,274.65
2022-12-06T08:17:59.000Z,274.59
2022-12-06T08:20:06.000Z,274.65
2022-12-06T08:21:32.000Z,274.65
2022-12-06T08:23:38.000Z,274.65
2022-12-06T08:26:29.000Z,274.65
2022-12-06T08:27:56.000Z,274.65
2022-12-06T08:30:02.000Z,274.65
2022-12-06T08:31:28.000Z,274.65
2022-12-06T08:33:34.000Z,274.65
2022-12-06T08:35:01.000Z,274.71
2022-12-06T08:37:07.000Z,274.71
2022-12-06T08:38:34.000Z,274.71
2022-12-06T08:40:40.000Z,274.71
2022-12-06T08:42:06.000Z,274.71
2022-12-06T08:44:13.000Z,274.71
2022-12-06T08:45:39.000Z,274.71
2022-12-06T08:47:45.000Z,274.71
2022-12-06T08:49:12.000Z,274.71
2022-12-06T08:51:18.000Z,274.71
2022-12-06T08:52:44.000Z,274.77
2022-12-06T08:54:50.000Z,274.77
2022-12-06T08:56:17.000Z,274.77
2022-12-06T08:58:23.000Z,274.77
2022-12-06T08:59:50.000Z,274.84
2022-12-06T09:01:56.000Z,274.84
2022-12-06T09:04:47.000Z,274.84
2022-12-06T09:06:14.000Z,274.9
2022-12-06T09:08:20.000Z,274.9
2022-12-06T09:09:47.000Z,274.9
2022-12-06T09:11:53.000Z,274.9
2022-12-06T09:13:19.000Z,274.96
2022-12-06T09:15:25.000Z,274.9
2022-12-06T09:16:52.000Z,274.96
2022-12-06T09:18:58.000Z,274.96
2022-12-06T09:20:24.000Z,274.96
2022-12-06T09:22:31.000Z,274.96
2022-12-06T09:23:57.000Z,274.96
2022-12-06T09:26:03.000Z,274.96
2022-12-06T09:27:30.000Z,275.02
2022-12-06T09:29:36.000Z,275.02
2022-12-06T09:31:05.000Z,275.02
2022-12-06T09:33:11.000Z,275.02
2022-12-06T09:34:38.000Z,275.02
2022-12-06T09:36:44.000Z,275.09
2022-12-06T09:38:11.000Z,275.09
2022-12-06T09:40:17.000Z,275.09
2022-12-06T09:43:08.000Z,275.15
2022-12-06T09:44:34.000Z,275.09
2022-12-06T09:46:40.000Z,275.15
2022-12-06T09:48:07.000Z,275.15
2022-12-06T09:50:13.000Z,275.15
2022-12-06T09:51:40.000Z,275.21
2022-12-06T09:53:46.000Z,275.15
2022-12-06T09:55:12.000Z,275.21
2022-12-06T09:57:18.000Z,275.15
2022-12-06T09:58:45.000Z,275.21
2022-12-06T10:00:51.000Z,275.21
2022-12-06T10:02:18.000Z,275.27
2022-12-06T10:04:24.000Z,275.21
2022-12-06T10:05:50.000Z,275.21
2022-12-06T10:07:56.000Z,275.27
2022-12-06T10:09:23.000Z,275.27
2022-12-06T10:11:29.000Z,275.27
2022-12-06T10:12:56.000Z,275.27
2022-12-06T10:15:02.000Z,275.27
2022-12-06T10:16:28.000Z,275.27
2022-12-06T10:18:35.000Z,275.27
2022-12-06T10:21:26.000Z,275.27
2022-12-06T10:22:53.000Z,275.34
2022-12-06T10:24:59.000Z,275.34
2022-12-06T10:26:25.000Z,275.34
2022-12-06T10:28:31.000Z,275.34
2022-12-06T10:29:58.000Z,275.34
2022-12-06T10:32:05.000Z,275.34
2022-12-06T10:33:31.000Z,275.34
2022-12-06T10:35:37.000Z,275.34
2022-12-06T10:37:04.000Z,275.34
2022-12-06T10:39:10.000Z,275.34
2022-12-06T10:40:36.000Z,275.34
2022-12-06T10:42:43.000Z,275.34
2022-12-06T10:44:09.000Z,275.34
2022-12-06T10:46:15.000Z,275.34
2022-12-06T10:47:42.000Z,275.34
2022-12-06T10:49:48.000Z,275.34
2022-12-06T10:51:14.000Z,275.34
2022-12-06T10:53:21.000Z,275.4
2022-12-06T10:54:47.000Z,275.4
2022-12-06T10:56:53.000Z,275.46
2022-12-06T10:59:45.000Z,275.4
2022-12-06T11:01:11.000Z,275.4
2022-12-06T11:03:17.000Z,275.4
2022-12-06T11:04:44.000Z,275.46
2022-12-06T11:06:50.000Z,275.46
2022-12-06T11:08:19.000Z,275.46
2022-12-06T11:10:26.000Z,275.46
2022-12-06T11:11:52.000Z,275.46
2022-12-06T11:13:58.000Z,275.46
2022-12-06T11:15:25.000Z,275.46
2022-12-06T11:17:31.000Z,275.46
2022-12-06T11:18:57.000Z,275.52
2022-12-06T11:21:03.000Z,275.52
2022-12-06T11:22:30.000Z,275.52
2022-12-06T11:24:36.000Z,275.52
2022-12-06T11:26:10.000Z,275.46
2022-12-06T11:28:16.000Z,275.52
2022-12-06T11:29:43.000Z,275.52
2022-12-06T11:31:49.000Z,275.46
2022-12-06T11:33:15.000Z,275.46
2022-12-06T11:35:21.000Z,275.46
2022-12-06T11:38:13.000Z,275.52
2022-12-06T11:39:39.000Z,275.52
2022-12-06T11:41:45.000Z,275.52
2022-12-06T11:43:12.000Z,275.52
2022-12-06T11:45:18.000Z,275.52
2022-12-06T11:46:44.000Z,275.52
2022-12-06T11:48:50.000Z,275.59
2022-12-06T11:50:17.000Z,275.59
2022-12-06T11:52:23.000Z,275.59
2022-12-06T11:53:50.000Z,275.65
2022-12-06T11:55:56.000Z,275.65
2022-12-06T11:57:22.000Z,275.65
2022-12-06T11:59:28.000Z,275.65
2022-12-06T12:00:55.000Z,275.65
2022-12-06T12:03:01.000Z,275.71
2022-12-06T12:04:28.000Z,275.71
2022-12-06T12:06:34.000Z,275.65
2022-12-06T12:08:00.000Z,275.65
2022-12-06T12:10:07.000Z,275.71
2022-12-06T12:11:33.000Z,275.77
2022-12-06T12:13:39.000Z,275.77
2022-12-06T12:16:30.000Z,275.77
2022-12-06T12:17:57.000Z,275.84
2022-12-06T12:20:03.000Z,275.77
2022-12-06T12:21:30.000Z,275.77
2022-12-06T12:23:36.000Z,275.84
2022-12-06T12:25:02.000Z,275.77
2022-12-06T12:27:23.000Z,275.84
2022-12-06T12:28:53.000Z,275.77
2022-12-06T12:30:59.000Z,275.84
2022-12-06T12:32:26.000Z,275.84
2022-12-06T12:34:32.000Z,275.84
2022-12-06T12:36:04.000Z,275.84
2022-12-06T12:38:10.000Z,275.9
2022-12-06T12:39:37.000Z,275.9
2022-12-06T12:41:43.000Z,275.9
2022-12-06T12:43:09.000Z,275.96
2022-12-06T12:45:15.000Z,275.96
2022-12-06T12:46:42.000Z,275.96
2022-12-06T12:48:48.000Z,275.96
2022-12-06T12:50:15.000Z,275.96
2022-12-06T12:52:21.000Z,275.96
2022-12-06T12:55:12.000Z,275.96
2022-12-06T12:56:39.000Z,276.02
2022-12-06T12:58:45.000Z,275.96
2022-12-06T13:00:11.000Z,275.96
2022-12-06T13:02:18.000Z,276.02
2022-12-06T13:03:44.000Z,276.02
2022-12-06T13:05:55.000Z,276.02
2022-12-06T13:07:22.000Z,276.02
2022-12-06T13:09:28.000Z,276.02
2022-12-06T13:10:54.000Z,276.02
2022-12-06T13:13:03.000Z,276.02
2022-12-06T13:14:29.000Z,276.02
2022-12-06T13:16:36.000Z,276.02
2022-12-06T13:18:02.000Z,276.02
2022-12-06T13:20:08.000Z,276.02
2022-12-06T13:21:35.000Z,276.02
2022-12-06T13:23:41.000Z,276.02
2022-12-06T13:25:08.000Z,276.02
2022-12-06T13:27:14.000Z,276.09
2022-12-06T13:28:40.000Z,276.02
2022-12-06T13:30:46.000Z,276.02
2022-12-06T13:33:37.000Z,276.02
2022-12-06T13:35:04.000Z,276.09
2022-12-06T13:37:10.000Z,276.02
2022-12-06T13:38:37.000Z,276.02
2022-12-06T13:40:43.000Z,276.02
2022-12-06T13:42:09.000Z,276.02
2022-12-06T13:44:15.000Z,276.02
2022-12-06T13:45:42.000Z,276.02
2022-12-06T13:47:48.000Z,276.02
2022-12-06T13:49:15.000Z,276.02
2022-12-06T13:51:21.000Z,276.02
2022-12-06T13:52:47.000Z,276.02
2022-12-06T13:54:53.000Z,276.02
2022-12-06T13:56:20.000Z,275.96
2022-12-06T13:58:26.000Z,275.96
2022-12-06T13:59:52.000Z,275.96
2022-12-06T14:01:59.000Z,275.96
2022-12-06T14:03:25.000Z,275.9
2022-12-06T14:05:31.000Z,275.9
2022-12-06T14:06:58.000Z,275.96
2022-12-06T14:09:04.000Z,275.9
2022-12-06T14:11:55.000Z,275.9
2022-12-06T14:13:21.000Z,275.9
2022-12-06T14:15:28.000Z,275.9
2022-12-06T14:16:54.000Z,275.9
2022-12-06T14:19:00.000Z,275.9
2022-12-06T14:20:27.000Z,275.9
2022-12-06T14:22:33.000Z,275.9
2022-12-06T14:23:59.000Z,275.96
2022-12-06T14:26:05.000Z,275.96
2022-12-06T14:27:32.000Z,275.9
2022-12-06T14:29:38.000Z,275.9
2022-12-06T14:31:05.000Z,275.9
2022-12-06T14:33:11.000Z,275.96
2022-12-06T14:34:37.000Z,275.96
2022-12-06T14:36:43.000Z,275.9
2022-12-06T14:38:10.000Z,275.96
2022-12-06T14:40:16.000Z,275.9
2022-12-06T14:42:09.000Z,275.9
2022-12-06T14:44:15.000Z,275.9
2022-12-06T14:45:41.000Z,275.9
2022-12-06T14:47:48.000Z,275.9
2022-12-06T14:50:39.000Z,275.9
2022-12-06T14:52:05.000Z,275.9
2022-12-06T14:54:11.000Z,275.9
2022-12-06T14:55:38.000Z,275.9
2022-12-06T14:57:44.000Z,275.9
2022-12-06T14:59:10.000Z,275.9
2022-12-06T15:01:16.000Z,275.9
2022-12-06T15:02:43.000Z,275.9
2022-12-06T15:04:49.000Z,275.9
2022-12-06T15:06:16.000Z,275.9
2022-12-06T15:08:22.000Z,275.84
2022-12-06T15:09:48.000Z,275.84
2022-12-06T15:11:54.000Z,275.84
2022-12-06T15:13:21.000Z,275.84
2022-12-06T15:15:27.000Z,275.77
2022-12-06T15:16:54.000Z,275.84
2022-12-06T15:19:00.000Z,275.84
2022-12-06T15:20:26.000Z,275.84
2022-12-06T15:22:32.000Z,275.84
2022-12-06T15:23:59.000Z,275.84
2022-12-06T15:26:05.000Z,275.77
2022-12-06T15:28:56.000Z,275.77
2022-12-06T15:30:22.000Z,275.77
2022-12-06T15:32:28.000Z,275.77
2022-12-06T15:33:55.000Z,275.77
2022-12-06T15:36:01.000Z,275.77
2022-12-06T15:37:28.000Z,275.77
2022-12-06T15:39:43.000Z,275.77
2022-12-06T15:41:10.000Z,275.77
2022-12-06T15:43:16.000Z,275.77
2022-12-06T15:44:42.000Z,275.77
2022-12-06T15:46:53.000Z,275.71
2022-12-06T15:48:20.000Z,275.71
2022-12-06T15:50:26.000Z,275.71
2022-12-06T15:51:53.000Z,275.77
2022-12-06T15:53:59.000Z,275.71
2022-12-06T15:55:25.000Z,275.71
2022-12-06T15:57:31.000Z,275.71
2022-12-06T15:58:58.000Z,275.77
2022-12-06T16:01:04.000Z,275.77
2022-12-06T16:02:30.000Z,275.77
2022-12-06T16:04:37.000Z,275.77
2022-12-06T16:07:28.000Z,275.77
2022-12-06T16:08:54.000Z,275.77
2022-12-06T16:11:00.000Z,275.77
2022-12-06T16:12:36.000Z,275.71
2022-12-06T16:14:42.000Z,275.71
2022-12-06T16:16:09.000Z,275.71
2022-12-06T16:18:15.000Z,275.71
2022-12-06T16:19:42.000Z,275.77
2022-12-06T16:21:48.000Z,275.71
2022-12-06T16:23:14.000Z,275.71
2022-12-06T16:25:20.000Z,275.71
2022-12-06T16:26:47.000Z,275.77
2022-12-06T16:28:53.000Z,275.71
2022-12-06T16:30:19.000Z,275.77
2022-12-06T16:32:25.000Z,275.71
2022-12-06T16:33:52.000Z,275.71
2022-12-06T16:35:58.000Z,275.71
2022-12-06T16:37:24.000Z,275.77
2022-12-06T16:39:31.000Z,275.71
2022-12-06T16:40:57.000Z,275.71
2022-12-06T16:43:09.000Z,275.71
2022-12-06T16:46:00.000Z,275.71
2022-12-06T16:49:32.000Z,275.71
2022-12-06T16:51:11.000Z,275.71
2022-12-06T16:53:17.000Z,275.71
2022-12-06T16:54:44.000Z,275.71
2022-12-06T16:56:50.000Z,275.71
2022-12-06T16:58:17.000Z,275.71
2022-12-06T17:00:23.000Z,275.71
2022-12-06T17:01:49.000Z,275.71
2022-12-06T17:03:55.000Z,275.71
2022-12-06T17:05:22.000Z,275.71
2022-12-06T17:07:28.000Z,275.71
2022-12-06T17:08:55.000Z,275.71
2022-12-06T17:11:01.000Z,275.71
2022-12-06T17:12:27.000Z,275.71
2022-12-06T17:14:33.000Z,275.71
2022-12-06T17:16:00.000Z,275.71
2022-12-06T17:18:06.000Z,275.71
2022-12-06T17:19:33.000Z,275.71
2022-12-06T17:21:39.000Z,275.71
2022-12-06T17:24:30.000Z,275.65
2022-12-06T17:25:56.000Z,275.71
2022-12-06T17:28:03.000Z,275.71
2022-12-06T17:29:29.000Z,275.71
2022-12-06T17:31:35.000Z,275.71
2022-12-06T17:33:02.000Z,275.71
2022-12-06T17:35:08.000Z,275.71
2022-12-06T17:36:35.000Z,275.71
2022-12-06T17:38:41.000Z,275.71
2022-12-06T17:40:07.000Z,275.71
2022-12-06T17:42:13.000Z,275.71
2022-12-06T17:43:40.000Z,275.71
2022-12-06T17:45:46.000Z,275.71
2022-12-06T17:47:13.000Z,275.71
2022-12-06T17:49:19.000Z,275.65
2022-12-06T17:50:45.000Z,275.65
2022-12-06T17:52:52.000Z,275.71
2022-12-06T17:54:18.000Z,275.71
2022-12-06T17:56:24.000Z,275.71
2022-12-06T17:57:51.000Z,275.65
2022-12-06T17:59:57.000Z,275.71
2022-12-06T18:02:48.000Z,275.71
2022-12-06T18:04:15.000Z,275.71
2022-12-06T18:06:21.000Z,275.71
2022-12-06T18:07:48.000Z,275.71
2022-12-06T18:09:54.000Z,275.71
2022-12-06T18:11:20.000Z,275.71
2022-12-06T18:13:26.000Z,275.71
2022-12-06T18:14:53.000Z,275.71
2022-12-06T18:16:59.000Z,275.65
2022-12-06T18:18:25.000Z,275.71
2022-12-06T18:20:32.000Z,275.65
2022-12-06T18:21:58.000Z,275.71
2022-12-06T18:24:04.000Z,275.65
2022-12-06T18:25:47.000Z,275.71
2022-12-06T18:27:53.000Z,275.65
2022-12-06T18:29:20.000Z,275.65
2022-12-06T18:31:26.000Z,275.65
2022-12-06T18:32:52.000Z,275.65
2022-12-06T18:34:59.000Z,275.65
2022-12-06T18:36:26.000Z,275.65
2022-12-06T18:38:32.000Z,275.65
2022-12-06T18:41:23.000Z,275.65
2022-12-06T18:42:50.000Z,275.65
2022-12-06T18:44:56.000Z,275.65
2022-12-06T18:46:23.000Z,275.59
2022-12-06T18:48:29.000Z,275.65
2022-12-06T18:49:55.000Z,275.59
2022-12-06T18:52:02.000Z,275.59
2022-12-06T18:53:28.000Z,275.59
2022-12-06T18:55:34.000Z,275.59
2022-12-06T18:57:01.000Z,275.59
2022-12-06T18:59:07.000Z,275.59
2022-12-06T19:00:33.000Z,275.59
2022-12-06T19:02:39.000Z,275.59
2022-12-06T19:04:06.000Z,275.59
2022-12-06T19:06:12.000Z,275.59
2022-12-06T19:07:39.000Z,275.52
2022-12-06T19:09:45.000Z,275.59
2022-12-06T19:11:12.000Z,275.59
2022-12-06T19:13:18.000Z,275.52
2022-12-06T19:14:44.000Z,275.59
2022-12-06T19:16:50.000Z,275.52
2022-12-06T19:19:42.000Z,275.59
2022-12-06T19:21:08.000Z,275.52
2022-12-06T19:23:14.000Z,275.59
2022-12-06T19:24:41.000Z,275.59
2022-12-06T19:26:47.000Z,275.59
2022-12-06T19:28:14.000Z,275.52
2022-12-06T19:30:20.000Z,275.59
2022-12-06T19:31:46.000Z,275.59
2022-12-06T19:33:52.000Z,275.59
2022-12-06T19:35:19.000Z,275.59
2022-12-06T19:37:25.000Z,275.59
2022-12-06T19:38:52.000Z,275.59
2022-12-06T19:40:58.000Z,275.59
2022-12-06T19:42:24.000Z,275.59
2022-12-06T19:44:30.000Z,275.59
2022-12-06T19:45:57.000Z,275.59
2022-12-06T19:48:03.000Z,275.52
2022-12-06T19:49:29.000Z,275.52
2022-12-06T19:51:36.000Z,275.52
2022-12-06T19:53:02.000Z,275.52
2022-12-06T19:55:08.000Z,275.52
2022-12-06T19:57:59.000Z,275.52
2022-12-06T19:59:26.000Z,275.52
2022-12-06T20:01:32.000Z,275.52
2022-12-06T20:02:59.000Z,275.46
2022-12-06T20:05:05.000Z,275.46
2022-12-06T20:06:31.000Z,275.46
2022-12-06T20:08:37.000Z,275.46
2022-12-06T20:10:04.000Z,275.46
2022-12-06T20:12:10.000Z,275.4
2022-12-06T20:13:36.000Z,275.4
2022-12-06T20:15:42.000Z,275.34
2022-12-06T20:17:09.000Z,275.27
2022-12-06T20:19:15.000Z,275.09
2022-12-06T20:20:42.000Z,275.09
2022-12-06T20:22:48.000Z,274.96
2022-12-06T20:24:15.000Z,274.96
2022-12-06T20:26:21.000Z,274.9
2022-12-06T20:27:47.000Z,274.84
2022-12-06T20:29:53.000Z,274.77
2022-12-06T20:31:20.000Z,274.77
2022-12-06T20:33:26.000Z,274.65
2022-12-06T20:36:17.000Z,274.59
2022-12-06T20:37:44.000Z,274.59
2022-12-06T20:39:50.000Z,274.46
2022-12-06T20:41:16.000Z,274.4
2022-12-06T20:43:22.000Z,274.34
2022-12-06T20:44:49.000Z,274.27
2022-12-06T20:46:55.000Z,274.27
2022-12-06T20:48:22.000Z,274.21
2022-12-06T20:50:28.000Z,274.15
2022-12-06T20:51:54.000Z,274.15
2022-12-06T20:54:00.000Z,274.15
2022-12-06T20:55:27.000Z,274.21
2022-12-06T20:57:33.000Z,274.27
2022-12-06T20:59:00.000Z,274.21
2022-12-06T21:01:06.000Z,274.27
2022-12-06T21:02:32.000Z,274.34
2022-12-06T21:04:39.000Z,274.4
2022-12-06T21:06:05.000Z,274.34
2022-12-06T21:08:11.000Z,274.4
2022-12-06T21:09:38.000Z,274.4
2022-12-06T21:11:44.000Z,274.46
2022-12-06T21:14:36.000Z,274.46
2022-12-06T21:16:02.000Z,274.46
2022-12-06T21:18:09.000Z,274.46
2022-12-06T21:19:38.000Z,274.4
2022-12-06T21:21:44.000Z,274.34
2022-12-06T21:23:11.000Z,274.4
2022-12-06T21:25:17.000Z,274.4
2022-12-06T21:26:43.000Z,274.34
2022-12-06T21:28:49.000Z,274.4
2022-12-06T21:30:16.000Z,274.4
2022-12-06T21:32:22.000Z,274.4
2022-12-06T21:33:48.000Z,274.46
2022-12-06T21:35:54.000Z,274.46
2022-12-06T21:37:21.000Z,274.46
2022-12-06T21:39:27.000Z,274.46
2022-12-06T21:40:54.000Z,274.4
2022-12-06T21:43:05.000Z,274.4
2022-12-06T21:44:32.000Z,274.4
2022-12-06T21:46:38.000Z,274.4
2022-12-06T21:48:05.000Z,274.4
2022-12-06T21:50:11.000Z,274.46
2022-12-06T21:53:02.000Z,274.46
2022-12-06T21:54:28.000Z,274.46
2022-12-06T21:56:34.000Z,274.52
2022-12-06T21:58:01.000Z,274.52
2022-12-06T22:00:07.000Z,274.52
2022-12-06T22:01:33.000Z,274.52
2022-12-06T22:03:40.000Z,274.52
2022-12-06T22:05:06.000Z,274.52
2022-12-06T22:07:12.000Z,274.46
2022-12-06T22:08:39.000Z,274.46
2022-12-06T22:10:45.000Z,274.46
2022-12-06T22:12:11.000Z,274.46
2022-12-06T22:14:17.000Z,274.46
2022-12-06T22:15:44.000Z,274.46
2022-12-06T22:17:50.000Z,274.46
2022-12-06T22:19:17.000Z,274.46
2022-12-06T22:21:23.000Z,274.46
2022-12-06T22:22:49.000Z,274.46
2022-12-06T22:24:55.000Z,274.46
2022-12-06T22:26:22.000Z,274.46
2022-12-06T22:28:28.000Z,274.46
2022-12-06T22:31:19.000Z,274.46
2022-12-06T22:32:46.000Z,274.52
2022-12-06T22:34:52.000Z,274.46
2022-12-06T22:36:18.000Z,274.46
2022-12-06T22:38:24.000Z,274.46
2022-12-06T22:39:51.000Z,274.52
2022-12-06T22:41:57.000Z,274.52
2022-12-06T22:43:24.000Z,274.52
2022-12-06T22:45:30.000Z,274.52
2022-12-06T22:46:56.000Z,274.59
2022-12-06T22:49:03.000Z,274.59
2022-12-06T22:50:29.000Z,274.59
2022-12-06T22:52:35.000Z,274.59
2022-12-06T22:54:02.000Z,274.59
2022-12-06T22:56:08.000Z,274.59